Time;durP1;ratioP1;P1;durP2;ratioP2;P2;SDS_P1;SDS_P2;PMS_P1;PMS_P2;Temp;Humidity;BMP_temperature;BMP_pressure;BME280_temperature;BME280_humidity;BME280_pressure;Samples;Min_cycle;Max_cycle;Signal;HPM_P1;HPM_P2
2024/01/08 00:01:27;;;;;;;6.90;4.50;;;;;;;;;;5003509;28;25088;-73
2024/01/08 00:03:53;;;;;;;7.78;4.93;;;;;;;;;;4986628;28;25064;-72
2024/01/08 00:06:19;;;;;;;9.45;5.05;;;;;;;;;;5028977;28;25069;-72
2024/01/08 00:08:45;;;;;;;7.43;5.05;;;;;;;;;;4991278;28;25059;-74
2024/01/08 00:11:11;;;;;;;5.45;4.30;;;;;;;;;;5004323;28;25108;-71
2024/01/08 00:13:37;;;;;;;7.32;4.53;;;;;;;;;;4996618;28;25061;-72
2024/01/08 00:16:03;;;;;;;6.22;4.25;;;;;;;;;;4992458;28;25088;-74
2024/01/08 00:18:29;;;;;;;8.90;4.35;;;;;;;;;;4999618;28;25145;-73
2024/01/08 00:20:56;;;;;;;8.13;4.35;;;;;;;;;;4985452;28;25061;-72
2024/01/08 00:23:23;;;;;;;7.68;5.20;;;;;;;;;;4991750;28;25048;-72
2024/01/08 00:25:49;;;;;;;6.88;3.97;;;;;;;;;;4991966;28;25079;-72
2024/01/08 00:28:15;;;;;;;6.45;4.80;;;;;;;;;;4991474;28;25090;-74
2024/01/08 00:30:41;;;;;;;7.03;4.85;;;;;;;;;;4988707;28;25078;-72
2024/01/08 00:33:08;;;;;;;4.68;4.25;;;;;;;;;;4988523;28;25123;-71
2024/01/08 00:35:34;;;;;;;5.25;4.75;;;;;;;;;;4989510;28;25083;-72
2024/01/08 00:38:00;;;;;;;4.80;4.18;;;;;;;;;;5024689;28;25053;-73
2024/01/08 00:40:26;;;;;;;6.60;5.03;;;;;;;;;;4995423;28;25060;-73
2024/01/08 00:43:02;;;;;;;8.32;5.20;;;;;;;;;;4997183;28;25072;-73
2024/01/08 00:45:28;;;;;;;6.55;4.68;;;;;;;;;;4990633;28;25056;-71
2024/01/08 00:47:54;;;;;;;7.85;4.57;;;;;;;;;;4994673;28;25077;-73
2024/01/08 00:50:20;;;;;;;5.97;4.70;;;;;;;;;;5009646;28;25095;-73
2024/01/08 00:52:46;;;;;;;5.80;4.80;;;;;;;;;;4992641;28;25154;-73
2024/01/08 00:55:12;;;;;;;7.38;5.30;;;;;;;;;;4999557;28;25065;-72
2024/01/08 00:57:39;;;;;;;5.75;4.93;;;;;;;;;;5007980;28;25056;-73
2024/01/08 01:00:06;;;;;;;6.82;5.07;;;;;;;;;;5002519;28;25059;-71
2024/01/08 01:02:32;;;;;;;6.38;5.35;;;;;;;;;;5008156;28;25073;-74
2024/01/08 01:04:58;;;;;;;7.07;4.43;;;;;;;;;;5009393;28;25087;-73
2024/01/08 01:07:26;;;;;;;6.03;4.72;;;;;;;;;;5007373;28;25076;-76
2024/01/08 01:09:52;;;;;;;6.82;5.07;;;;;;;;;;4994573;28;25051;-73
2024/01/08 01:12:18;;;;;;;5.95;4.57;;;;;;;;;;4989373;28;25065;-73
2024/01/08 01:14:44;;;;;;;6.45;5.22;;;;;;;;;;4991023;28;25096;-70
2024/01/08 01:17:10;;;;;;;6.47;4.88;;;;;;;;;;4990297;28;25053;-71
2024/01/08 01:19:36;;;;;;;6.82;5.03;;;;;;;;;;5001751;28;25060;-72
2024/01/08 01:22:02;;;;;;;9.40;5.55;;;;;;;;;;4997795;28;25105;-71
2024/01/08 01:24:28;;;;;;;6.90;5.13;;;;;;;;;;4986903;28;25063;-71
2024/01/08 01:27:17;;;;;;;9.13;5.70;;;;;;;;;;5013879;28;25067;-71
2024/01/08 01:29:43;;;;;;;7.88;5.72;;;;;;;;;;5001447;28;25170;-71
2024/01/08 01:32:09;;;;;;;8.25;4.85;;;;;;;;;;4998071;28;25087;-71
2024/01/08 01:34:35;;;;;;;7.80;5.50;;;;;;;;;;4991114;28;25064;-73
2024/01/08 01:37:01;;;;;;;6.90;5.25;;;;;;;;;;4987066;28;25108;-73
2024/01/08 01:39:29;;;;;;;6.47;5.05;;;;;;;;;;4996493;28;25067;-75
2024/01/08 01:41:54;;;;;;;6.72;5.10;;;;;;;;;;4992993;28;25058;-72
2024/01/08 01:44:21;;;;;;;6.22;5.38;;;;;;;;;;4989851;28;25066;-72
2024/01/08 01:46:51;;;;;;;7.28;5.50;;;;;;;;;;4993131;28;25094;-71
2024/01/08 01:49:18;;;;;;;8.75;6.53;;;;;;;;;;4990568;28;25090;-71
2024/01/08 01:51:45;;;;;;;10.25;5.63;;;;;;;;;;5022843;28;25066;-70
2024/01/08 01:54:12;;;;;;;6.40;5.15;;;;;;;;;;4990251;28;25063;-74
2024/01/08 01:56:39;;;;;;;9.60;5.38;;;;;;;;;;4992461;28;25111;-72
2024/01/08 01:59:06;;;;;;;7.15;5.90;;;;;;;;;;4995645;28;25110;-72
2024/01/08 02:01:32;;;;;;;7.15;6.10;;;;;;;;;;4997120;28;25152;-71
2024/01/08 02:04:00;;;;;;;10.95;7.32;;;;;;;;;;4993942;28;25069;-72
2024/01/08 02:06:27;;;;;;;10.93;7.07;;;;;;;;;;4992783;28;25151;-73
2024/01/08 02:08:53;;;;;;;9.48;6.03;;;;;;;;;;5004697;28;25070;-72
2024/01/08 02:11:20;;;;;;;7.75;5.72;;;;;;;;;;5000051;28;25083;-71
2024/01/08 02:13:46;;;;;;;7.82;6.43;;;;;;;;;;5000939;28;25070;-72
2024/01/08 02:16:12;;;;;;;7.75;6.00;;;;;;;;;;5001166;28;25055;-71
2024/01/08 02:18:38;;;;;;;6.82;5.40;;;;;;;;;;5019307;28;25076;-73
2024/01/08 02:21:04;;;;;;;8.07;6.00;;;;;;;;;;5015914;28;25070;-73
2024/01/08 02:23:30;;;;;;;10.63;6.22;;;;;;;;;;5016195;28;25079;-72
2024/01/08 02:25:56;;;;;;;7.80;5.88;;;;;;;;;;5019279;28;25050;-71
2024/01/08 02:28:22;;;;;;;7.75;6.05;;;;;;;;;;5013577;28;25082;-73
2024/01/08 02:30:48;;;;;;;7.25;5.90;;;;;;;;;;5012475;28;25079;-72
2024/01/08 02:33:14;;;;;;;6.80;5.60;;;;;;;;;;5007105;28;25167;-73
2024/01/08 02:35:41;;;;;;;6.80;5.60;;;;;;;;;;5000869;28;25139;-74
2024/01/08 02:38:07;;;;;;;6.65;5.05;;;;;;;;;;5026572;28;25158;-72
2024/01/08 02:40:33;;;;;;;7.68;6.18;;;;;;;;;;4987844;28;25047;-73
2024/01/08 02:43:01;;;;;;;8.20;6.13;;;;;;;;;;4991695;28;25105;-74
2024/01/08 02:45:26;;;;;;;8.02;6.00;;;;;;;;;;4989373;28;25058;-71
2024/01/08 02:47:52;;;;;;;8.13;6.05;;;;;;;;;;4990023;28;25109;-71
2024/01/08 02:50:18;;;;;;;8.10;6.25;;;;;;;;;;4996357;28;25148;-71
2024/01/08 02:52:44;;;;;;;8.00;6.43;;;;;;;;;;4995732;28;25141;-72
2024/01/08 02:55:11;;;;;;;9.75;6.43;;;;;;;;;;4992400;28;25064;-71
2024/01/08 02:57:37;;;;;;;6.78;6.07;;;;;;;;;;4999817;28;25048;-76
2024/01/08 03:00:04;;;;;;;7.78;6.13;;;;;;;;;;4996646;28;25071;-73
2024/01/08 03:02:34;;;;;;;7.70;6.32;;;;;;;;;;4996501;28;25078;-71
2024/01/08 03:05:00;;;;;;;8.65;6.45;;;;;;;;;;5001120;28;25089;-72
2024/01/08 03:07:27;;;;;;;11.80;6.55;;;;;;;;;;5000711;28;25104;-71
2024/01/08 03:09:58;;;;;;;11.55;6.35;;;;;;;;;;4997315;28;25066;-74
2024/01/08 03:12:24;;;;;;;6.88;5.50;;;;;;;;;;4985284;28;25080;-70
2024/01/08 03:14:50;;;;;;;10.20;6.53;;;;;;;;;;5017913;28;25069;-71
2024/01/08 03:17:16;;;;;;;7.97;6.07;;;;;;;;;;4992476;28;25067;-71
2024/01/08 03:19:42;;;;;;;9.82;6.70;;;;;;;;;;4989584;28;25131;-73
2024/01/08 03:22:08;;;;;;;11.15;6.95;;;;;;;;;;5024155;28;25063;-71
2024/01/08 03:24:36;;;;;;;8.95;6.45;;;;;;;;;;4988819;28;25090;-73
2024/01/08 03:27:02;;;;;;;10.68;6.03;;;;;;;;;;4993355;28;25045;-73
2024/01/08 03:29:29;;;;;;;8.68;6.20;;;;;;;;;;4992704;28;25070;-72
2024/01/08 03:31:55;;;;;;;8.80;5.63;;;;;;;;;;4994455;28;25057;-71
2024/01/08 03:34:21;;;;;;;10.50;6.85;;;;;;;;;;5005252;28;25104;-70
2024/01/08 03:36:48;;;;;;;12.10;6.88;;;;;;;;;;4985084;28;25083;-75
2024/01/08 03:39:14;;;;;;;9.80;6.85;;;;;;;;;;4998188;28;25056;-71
2024/01/08 03:41:41;;;;;;;8.57;6.55;;;;;;;;;;4991836;28;25056;-73
2024/01/08 03:44:08;;;;;;;11.45;7.20;;;;;;;;;;5000972;28;25071;-70
2024/01/08 03:46:34;;;;;;;11.75;7.68;;;;;;;;;;4991631;28;24923;-72
2024/01/08 03:49:00;;;;;;;6.68;5.97;;;;;;;;;;5005519;28;25124;-72
2024/01/08 03:51:26;;;;;;;10.43;6.32;;;;;;;;;;5003438;28;25151;-72
2024/01/08 03:53:53;;;;;;;12.07;6.43;;;;;;;;;;4998454;28;25061;-73
2024/01/08 03:56:19;;;;;;;9.98;6.13;;;;;;;;;;4991725;28;25088;-72
2024/01/08 03:58:45;;;;;;;10.70;6.40;;;;;;;;;;5022639;28;25077;-71
2024/01/08 04:01:14;;;;;;;7.82;5.85;;;;;;;;;;4996049;28;25068;-72
2024/01/08 04:03:40;;;;;;;10.25;6.57;;;;;;;;;;4993603;28;25108;-72
2024/01/08 04:06:06;;;;;;;7.72;6.10;;;;;;;;;;5002995;28;25084;-72
2024/01/08 04:08:32;;;;;;;11.25;6.53;;;;;;;;;;5022670;28;25076;-72
2024/01/08 04:10:58;;;;;;;12.65;6.35;;;;;;;;;;4987407;28;25058;-73
2024/01/08 04:13:24;;;;;;;14.88;7.35;;;;;;;;;;4988290;28;25110;-70
2024/01/08 04:15:50;;;;;;;11.18;6.07;;;;;;;;;;4992971;28;25077;-72
2024/01/08 04:18:16;;;;;;;11.13;6.75;;;;;;;;;;4990167;28;25072;-72
2024/01/08 04:20:42;;;;;;;9.60;6.60;;;;;;;;;;4988505;28;25079;-73
2024/01/08 04:23:10;;;;;;;9.52;6.63;;;;;;;;;;4989410;28;25063;-71
2024/01/08 04:25:36;;;;;;;11.90;7.60;;;;;;;;;;4988501;28;25059;-73
2024/01/08 04:28:02;;;;;;;9.73;6.97;;;;;;;;;;4987005;28;25063;-72
2024/01/08 04:30:28;;;;;;;11.70;6.60;;;;;;;;;;4986398;28;25060;-72
2024/01/08 04:32:54;;;;;;;13.13;6.40;;;;;;;;;;4989193;28;25104;-73
2024/01/08 04:35:20;;;;;;;13.93;7.45;;;;;;;;;;4992682;28;25052;-73
2024/01/08 04:37:47;;;;;;;10.80;6.85;;;;;;;;;;4987587;28;25140;-72
2024/01/08 04:40:13;;;;;;;14.52;7.65;;;;;;;;;;4988579;28;25102;-74
2024/01/08 04:42:39;;;;;;;10.77;7.05;;;;;;;;;;5019049;28;25076;-72
2024/01/08 04:45:05;;;;;;;14.05;6.55;;;;;;;;;;4984060;28;25045;-72
2024/01/08 04:47:31;;;;;;;10.82;6.10;;;;;;;;;;4992821;28;25093;-71
2024/01/08 04:49:57;;;;;;;10.52;6.55;;;;;;;;;;4989735;28;25099;-72
2024/01/08 04:52:23;;;;;;;10.43;6.85;;;;;;;;;;4990887;28;25109;-72
2024/01/08 04:54:51;;;;;;;10.85;7.18;;;;;;;;;;4990238;28;25061;-71
2024/01/08 04:57:18;;;;;;;12.38;8.48;;;;;;;;;;4995157;28;25053;-71
2024/01/08 04:59:44;;;;;;;9.30;6.75;;;;;;;;;;4989998;28;25076;-73
2024/01/08 05:02:10;;;;;;;11.48;6.85;;;;;;;;;;4991761;28;25066;-72
2024/01/08 05:04:36;;;;;;;12.77;7.28;;;;;;;;;;4987577;28;25064;-72
2024/01/08 05:07:02;;;;;;;11.90;8.10;;;;;;;;;;4993403;28;25134;-73
2024/01/08 05:09:29;;;;;;;11.02;7.20;;;;;;;;;;4998031;28;25148;-72
2024/01/08 05:11:57;;;;;;;15.68;8.10;;;;;;;;;;5002799;28;25060;-73
2024/01/08 05:14:23;;;;;;;11.35;7.90;;;;;;;;;;5001161;28;25197;-72
2024/01/08 05:16:49;;;;;;;15.82;8.18;;;;;;;;;;4991671;28;25070;-71
2024/01/08 05:19:15;;;;;;;11.07;7.53;;;;;;;;;;4993850;28;25133;-73
2024/01/08 05:21:41;;;;;;;14.48;7.75;;;;;;;;;;4997844;28;25065;-72
2024/01/08 05:24:07;;;;;;;11.82;7.05;;;;;;;;;;4997433;28;25054;-71
2024/01/08 05:26:33;;;;;;;11.85;7.35;;;;;;;;;;4992002;28;25070;-74
2024/01/08 05:28:59;;;;;;;10.63;7.18;;;;;;;;;;5011716;28;25057;-73
2024/01/08 05:31:25;;;;;;;11.68;7.28;;;;;;;;;;4997238;28;25085;-71
2024/01/08 05:33:51;;;;;;;12.23;6.95;;;;;;;;;;5000420;28;25080;-75
2024/01/08 05:36:17;;;;;;;13.57;7.75;;;;;;;;;;4995240;28;25069;-72
2024/01/08 05:38:43;;;;;;;12.80;7.22;;;;;;;;;;4996408;28;25065;-75
2024/01/08 05:41:09;;;;;;;11.07;7.68;;;;;;;;;;5000958;28;25084;-71
2024/01/08 05:43:37;;;;;;;13.93;7.88;;;;;;;;;;5004433;28;25136;-72
2024/01/08 05:46:07;;;;;;;12.98;7.30;;;;;;;;;;4995953;28;25130;-74
2024/01/08 05:48:37;;;;;;;11.00;7.78;;;;;;;;;;5011346;28;25093;-74
2024/01/08 05:51:09;;;;;;;15.65;7.20;;;;;;;;;;4990957;28;25080;-71
2024/01/08 05:53:35;;;;;;;;;;;;;;;;;;5024973;28;25065;-70
2024/01/08 05:56:01;;;;;;;14.27;9.05;;;;;;;;;;5023793;28;25085;-75
2024/01/08 05:58:27;;;;;;;12.82;7.50;;;;;;;;;;4995981;28;25171;-74
2024/01/08 06:00:53;;;;;;;17.13;8.10;;;;;;;;;;5016958;28;25080;-73
2024/01/08 06:03:20;;;;;;;12.70;8.02;;;;;;;;;;5003397;28;25054;-74
2024/01/08 06:05:46;;;;;;;13.05;8.38;;;;;;;;;;4998100;28;25067;-73
2024/01/08 06:08:12;;;;;;;19.08;9.57;;;;;;;;;;4994584;28;25083;-74
2024/01/08 06:10:38;;;;;;;11.60;8.23;;;;;;;;;;5005047;28;25079;-73
2024/01/08 06:13:04;;;;;;;17.33;8.75;;;;;;;;;;5030830;28;25077;-72
2024/01/08 06:15:30;;;;;;;17.45;8.25;;;;;;;;;;4996639;28;25107;-75
2024/01/08 06:17:56;;;;;;;12.00;7.68;;;;;;;;;;5000938;28;25096;-71
2024/01/08 06:20:22;;;;;;;13.13;8.73;;;;;;;;;;4990402;28;25110;-74
2024/01/08 06:22:48;;;;;;;15.50;9.20;;;;;;;;;;4996306;28;25151;-72
2024/01/08 06:25:14;;;;;;;16.60;8.73;;;;;;;;;;4995888;28;25074;-74
2024/01/08 06:27:40;;;;;;;17.25;8.88;;;;;;;;;;4992138;28;25055;-75
2024/01/08 06:30:06;;;;;;;17.73;9.38;;;;;;;;;;5024388;28;25114;-73
2024/01/08 06:32:32;;;;;;;14.65;9.20;;;;;;;;;;4996475;28;25073;-73
2024/01/08 06:34:59;;;;;;;15.13;9.38;;;;;;;;;;4996427;28;25087;-76
2024/01/08 06:37:25;;;;;;;18.52;9.45;;;;;;;;;;4994985;28;25082;-75
2024/01/08 06:39:51;;;;;;;13.00;8.32;;;;;;;;;;4995124;28;25086;-74
2024/01/08 06:42:17;;;;;;;16.60;9.13;;;;;;;;;;4993879;28;25145;-70
2024/01/08 06:44:43;;;;;;;16.67;9.93;;;;;;;;;;4993901;28;25144;-72
2024/01/08 06:47:09;;;;;;;21.58;9.80;;;;;;;;;;4996129;28;25076;-73
2024/01/08 06:49:36;;;;;;;15.27;8.82;;;;;;;;;;4988123;28;25046;-73
2024/01/08 06:52:01;;;;;;;11.05;8.05;;;;;;;;;;4992339;28;25092;-72
2024/01/08 06:54:27;;;;;;;16.80;9.88;;;;;;;;;;4996207;28;25098;-74
2024/01/08 06:56:53;;;;;;;15.23;8.63;;;;;;;;;;4997120;28;25071;-73
2024/01/08 06:59:19;;;;;;;17.58;9.40;;;;;;;;;;4997735;28;25101;-72
2024/01/08 07:01:47;;;;;;;15.38;9.30;;;;;;;;;;4995378;28;25118;-75
2024/01/08 07:04:13;;;;;;;19.13;8.98;;;;;;;;;;4998544;28;25074;-74
2024/01/08 07:06:39;;;;;;;15.52;9.45;;;;;;;;;;5005540;28;25050;-72
2024/01/08 07:09:06;;;;;;;14.57;9.50;;;;;;;;;;5000316;28;25059;-74
2024/01/08 07:11:32;;;;;;;14.15;9.00;;;;;;;;;;5005030;28;25132;-73
2024/01/08 07:13:58;;;;;;;15.38;9.45;;;;;;;;;;4999513;28;25158;-74
2024/01/08 07:16:25;;;;;;;14.65;9.63;;;;;;;;;;5003046;28;25064;-74
2024/01/08 07:18:51;;;;;;;15.85;8.57;;;;;;;;;;4992561;28;25048;-73
2024/01/08 07:21:18;;;;;;;15.35;9.60;;;;;;;;;;5012475;28;25069;-72
2024/01/08 07:23:45;;;;;;;14.50;9.30;;;;;;;;;;4995623;28;25075;-74
2024/01/08 07:26:11;;;;;;;12.57;8.70;;;;;;;;;;5042706;28;25073;-76
2024/01/08 07:28:37;;;;;;;19.42;9.95;;;;;;;;;;5019608;28;25079;-75
2024/01/08 07:31:05;;;;;;;13.20;8.32;;;;;;;;;;5005625;28;25118;-75
2024/01/08 07:33:31;;;;;;;13.65;8.88;;;;;;;;;;4991943;28;25068;-73
2024/01/08 07:35:58;;;;;;;15.25;9.15;;;;;;;;;;5001294;28;25145;-73
2024/01/08 07:38:24;;;;;;;16.40;9.63;;;;;;;;;;4994743;28;25061;-74
2024/01/08 07:40:50;;;;;;;16.08;9.25;;;;;;;;;;4988707;28;25045;-73
2024/01/08 07:43:16;;;;;;;16.55;8.80;;;;;;;;;;5023832;28;25055;-73
2024/01/08 07:45:42;;;;;;;15.52;9.60;;;;;;;;;;4993755;28;25151;-75
2024/01/08 07:48:08;;;;;;;12.43;7.97;;;;;;;;;;4992547;28;25051;-75
2024/01/08 07:50:34;;;;;;;17.20;9.77;;;;;;;;;;4991497;28;25144;-73
2024/01/08 07:53:00;;;;;;;13.15;9.10;;;;;;;;;;4998327;28;25145;-76
2024/01/08 07:55:26;;;;;;;14.93;10.13;;;;;;;;;;4993473;28;25099;-72
2024/01/08 07:57:53;;;;;;;20.77;9.50;;;;;;;;;;5017071;28;25062;-73
2024/01/08 08:00:21;;;;;;;12.48;8.15;;;;;;;;;;4992921;28;25052;-74
2024/01/08 08:02:47;;;;;;;16.77;8.30;;;;;;;;;;4998722;28;25066;-74
2024/01/08 08:05:16;;;;;;;13.32;9.68;;;;;;;;;;4991547;28;25169;-74
2024/01/08 08:07:41;;;;;;;13.85;10.30;;;;;;;;;;4985831;28;25084;-75
2024/01/08 08:10:08;;;;;;;14.07;8.88;;;;;;;;;;4982958;28;25171;-75
2024/01/08 08:12:34;;;;;;;12.88;8.25;;;;;;;;;;4989613;28;25117;-74
2024/01/08 08:15:00;;;;;;;16.15;9.18;;;;;;;;;;4989364;28;25069;-75
2024/01/08 08:17:26;;;;;;;12.07;8.65;;;;;;;;;;4994860;28;25090;-73
2024/01/08 08:19:53;;;;;;;11.85;7.88;;;;;;;;;;4982075;28;25132;-73
2024/01/08 08:22:19;;;;;;;11.52;8.18;;;;;;;;;;4995907;28;25101;-75
2024/01/08 08:24:47;;;;;;;11.85;8.27;;;;;;;;;;5001236;28;25061;-76
2024/01/08 08:27:13;;;;;;;13.07;8.60;;;;;;;;;;4988059;28;25124;-73
2024/01/08 08:29:43;;;;;;;11.95;7.40;;;;;;;;;;4985583;28;25076;-74
2024/01/08 08:32:09;;;;;;;12.35;8.02;;;;;;;;;;4987912;28;25077;-74
2024/01/08 08:34:35;;;;;;;9.60;6.97;;;;;;;;;;4997388;28;25050;-76
2024/01/08 08:37:01;;;;;;;13.20;7.78;;;;;;;;;;5008635;28;25050;-76
2024/01/08 08:39:27;;;;;;;11.10;6.43;;;;;;;;;;4989481;28;25058;-75
2024/01/08 08:41:54;;;;;;;8.45;6.55;;;;;;;;;;5011010;28;25061;-74
2024/01/08 08:44:20;;;;;;;11.98;6.95;;;;;;;;;;4986292;28;25054;-74
2024/01/08 08:46:46;;;;;;;9.63;6.97;;;;;;;;;;4986217;28;25084;-76
2024/01/08 08:49:13;;;;;;;10.88;6.55;;;;;;;;;;4985250;28;25154;-75
2024/01/08 08:51:40;;;;;;;8.73;6.35;;;;;;;;;;4984016;28;25049;-74
2024/01/08 08:54:06;;;;;;;11.80;7.13;;;;;;;;;;4982360;28;25065;-75
2024/01/08 08:56:32;;;;;;;11.63;6.93;;;;;;;;;;4990410;28;25082;-74
2024/01/08 08:58:59;;;;;;;10.95;6.78;;;;;;;;;;4995479;28;25070;-73
2024/01/08 09:01:25;;;;;;;10.00;6.75;;;;;;;;;;4990040;28;25058;-74
2024/01/08 09:03:52;;;;;;;12.38;7.13;;;;;;;;;;4988399;28;25067;-73
2024/01/08 09:06:20;;;;;;;8.95;6.05;;;;;;;;;;5024321;28;25064;-75
2024/01/08 09:08:46;;;;;;;14.00;7.28;;;;;;;;;;4991869;28;25080;-75
2024/01/08 09:11:12;;;;;;;13.52;7.80;;;;;;;;;;4984673;28;25060;-75
2024/01/08 09:13:38;;;;;;;11.30;6.45;;;;;;;;;;4982505;28;25050;-75
2024/01/08 09:16:04;;;;;;;9.23;6.18;;;;;;;;;;4993391;28;25063;-75
2024/01/08 09:18:30;;;;;;;12.60;6.18;;;;;;;;;;5020481;28;25055;-75
2024/01/08 09:20:56;;;;;;;11.88;6.85;;;;;;;;;;4984979;28;25115;-73
2024/01/08 09:23:22;;;;;;;7.63;5.88;;;;;;;;;;4998486;28;25164;-75
2024/01/08 09:25:48;;;;;;;7.30;5.30;;;;;;;;;;4983473;28;25519;-74
2024/01/08 09:28:14;;;;;;;8.80;5.60;;;;;;;;;;4984633;28;25051;-74
2024/01/08 09:30:40;;;;;;;10.10;4.65;;;;;;;;;;4986531;28;25063;-74
2024/01/08 09:33:06;;;;;;;6.97;5.00;;;;;;;;;;4989012;28;25074;-74
2024/01/08 09:35:32;;;;;;;8.57;5.38;;;;;;;;;;4990448;28;25080;-74
2024/01/08 09:37:58;;;;;;;8.10;5.22;;;;;;;;;;4989834;28;25091;-76
2024/01/08 09:40:24;;;;;;;7.32;4.97;;;;;;;;;;4982770;28;25096;-74
2024/01/08 09:42:55;;;;;;;7.93;5.43;;;;;;;;;;4981172;28;25079;-75
2024/01/08 09:45:25;;;;;;;9.82;5.30;;;;;;;;;;4985594;28;25060;-73
2024/01/08 09:47:52;;;;;;;6.88;5.40;;;;;;;;;;4980413;28;25055;-73
2024/01/08 09:50:18;;;;;;;7.47;5.07;;;;;;;;;;4991950;28;25047;-74
2024/01/08 09:52:44;;;;;;;10.27;5.25;;;;;;;;;;4985353;28;25067;-74
2024/01/08 09:55:10;;;;;;;5.70;4.07;;;;;;;;;;4990413;28;25142;-76
2024/01/08 09:57:37;;;;;;;8.30;5.70;;;;;;;;;;4986129;28;25067;-76
2024/01/08 10:00:04;;;;;;;8.35;5.60;;;;;;;;;;4985540;28;25062;-77
2024/01/08 10:02:30;;;;;;;9.45;5.32;;;;;;;;;;4986311;28;25093;-76
2024/01/08 10:04:56;;;;;;;9.07;5.75;;;;;;;;;;4986526;28;25058;-75
2024/01/08 10:07:22;;;;;;;8.38;5.95;;;;;;;;;;4985498;28;25055;-74
2024/01/08 10:09:48;;;;;;;11.07;5.60;;;;;;;;;;4991768;28;25107;-75
2024/01/08 10:12:15;;;;;;;7.40;5.57;;;;;;;;;;4984408;28;25087;-74
2024/01/08 10:14:41;;;;;;;8.23;5.25;;;;;;;;;;4985881;28;25068;-74
2024/01/08 10:17:07;;;;;;;8.02;5.80;;;;;;;;;;5019795;28;25059;-75
2024/01/08 10:19:33;;;;;;;12.98;7.18;;;;;;;;;;5020140;28;25073;-76
2024/01/08 10:22:11;;;;;;;8.80;6.57;;;;;;;;;;4984355;28;25089;-72
2024/01/08 10:24:38;;;;;;;10.93;5.50;;;;;;;;;;4987320;28;25084;-74
2024/01/08 10:27:05;;;;;;;11.70;7.63;;;;;;;;;;4989693;28;25069;-75
2024/01/08 10:29:31;;;;;;;13.80;7.03;;;;;;;;;;4988734;28;25128;-74
2024/01/08 10:31:57;;;;;;;8.43;6.18;;;;;;;;;;4988179;28;25056;-74
2024/01/08 10:34:23;;;;;;;8.70;6.53;;;;;;;;;;4998109;28;25071;-74
2024/01/08 10:36:51;;;;;;;9.80;6.38;;;;;;;;;;4990438;28;25087;-74
2024/01/08 10:39:18;;;;;;;11.55;5.93;;;;;;;;;;5019476;28;25055;-73
2024/01/08 10:41:44;;;;;;;7.35;6.00;;;;;;;;;;4979356;28;25120;-73
2024/01/08 10:44:10;;;;;;;8.85;6.18;;;;;;;;;;5029146;28;25147;-71
2024/01/08 10:46:45;;;;;;;9.60;7.03;;;;;;;;;;4987508;28;25067;-74
2024/01/08 10:49:15;;;;;;;8.32;5.75;;;;;;;;;;4986455;28;25145;-74
2024/01/08 10:51:44;;;;;;;10.38;5.85;;;;;;;;;;4991038;28;25080;-73
2024/01/08 10:54:12;;;;;;;7.20;5.35;;;;;;;;;;4990104;28;25185;-73
2024/01/08 10:56:37;;;;;;;11.20;6.40;;;;;;;;;;4989412;28;25151;-75
2024/01/08 10:59:10;;;;;;;10.00;6.35;;;;;;;;;;4987121;28;25412;-73
2024/01/08 11:01:36;;;;;;;7.38;5.68;;;;;;;;;;4988948;28;25102;-74
2024/01/08 11:04:15;;;;;;;9.73;6.70;;;;;;;;;;5003452;28;25062;-73
2024/01/08 11:06:42;;;;;;;9.70;6.13;;;;;;;;;;4997956;28;25104;-73
2024/01/08 11:09:24;;;;;;;8.88;6.18;;;;;;;;;;4984789;28;25070;-73
2024/01/08 11:11:51;;;;;;;9.60;5.68;;;;;;;;;;4982943;28;25084;-74
2024/01/08 11:14:17;;;;;;;10.23;5.80;;;;;;;;;;4989196;28;25126;-75
2024/01/08 11:16:43;;;;;;;9.13;6.28;;;;;;;;;;4986108;28;25078;-73
2024/01/08 11:19:18;;;;;;;8.68;5.90;;;;;;;;;;4982407;28;25067;-73
2024/01/08 11:21:56;;;;;;;10.48;6.10;;;;;;;;;;4988620;28;25053;-74
2024/01/08 11:24:23;;;;;;;6.85;5.30;;;;;;;;;;4989926;28;25066;-74
2024/01/08 11:26:51;;;;;;;11.13;6.50;;;;;;;;;;4984474;28;25053;-74
2024/01/08 11:29:17;;;;;;;8.68;6.00;;;;;;;;;;4979294;28;24762;-75
2024/01/08 11:31:56;;;;;;;8.27;5.35;;;;;;;;;;4990035;28;25100;-73
2024/01/08 11:34:37;;;;;;;9.32;6.50;;;;;;;;;;4987258;28;25109;-74
2024/01/08 11:37:22;;;;;;;9.77;5.90;;;;;;;;;;4982403;28;25070;-73
2024/01/08 11:39:50;;;;;;;8.73;5.55;;;;;;;;;;4984743;28;25076;-73
2024/01/08 11:42:16;;;;;;;7.88;5.78;;;;;;;;;;4986774;28;25069;-75
2024/01/08 11:44:43;;;;;;;10.38;6.20;;;;;;;;;;4979745;28;25143;-74
2024/01/08 11:47:09;;;;;;;7.78;5.43;;;;;;;;;;4982125;28;25061;-74
2024/01/08 11:49:35;;;;;;;8.52;5.97;;;;;;;;;;4982672;28;25059;-75
2024/01/08 11:52:01;;;;;;;10.40;6.03;;;;;;;;;;4982934;28;25067;-73
2024/01/08 11:54:27;;;;;;;8.15;6.30;;;;;;;;;;4980050;28;25069;-74
2024/01/08 11:56:54;;;;;;;9.35;6.20;;;;;;;;;;4984459;28;25053;-73
2024/01/08 11:59:30;;;;;;;9.77;6.72;;;;;;;;;;4981552;28;25059;-76
2024/01/08 12:01:56;;;;;;;11.60;6.45;;;;;;;;;;4975132;28;25153;-74
2024/01/08 12:04:23;;;;;;;9.50;6.05;;;;;;;;;;4973343;28;25058;-72
2024/01/08 12:06:54;;;;;;;10.23;5.70;;;;;;;;;;4981081;28;25056;-74
2024/01/08 12:09:20;;;;;;;10.57;6.20;;;;;;;;;;4992093;28;25056;-75
2024/01/08 12:11:46;;;;;;;9.07;5.85;;;;;;;;;;4982709;28;25069;-74
2024/01/08 12:14:12;;;;;;;10.93;6.10;;;;;;;;;;4989275;28;25065;-75
2024/01/08 12:16:38;;;;;;;9.52;6.43;;;;;;;;;;4980986;28;25063;-74
2024/01/08 12:19:06;;;;;;;9.65;6.38;;;;;;;;;;5013517;28;25115;-75
2024/01/08 12:21:32;;;;;;;7.75;6.60;;;;;;;;;;4982547;28;25066;-74
2024/01/08 12:23:58;;;;;;;9.93;6.32;;;;;;;;;;4989794;28;25057;-74
2024/01/08 12:26:25;;;;;;;9.23;5.65;;;;;;;;;;4990140;28;25092;-75
2024/01/08 12:28:51;;;;;;;9.32;6.30;;;;;;;;;;4988678;28;25073;-75
2024/01/08 12:31:18;;;;;;;8.30;6.75;;;;;;;;;;4987921;28;25064;-76
2024/01/08 12:33:44;;;;;;;8.35;6.30;;;;;;;;;;4991041;28;25069;-73
2024/01/08 12:36:10;;;;;;;8.48;5.28;;;;;;;;;;4978997;28;25028;-72
2024/01/08 12:38:36;;;;;;;9.02;6.63;;;;;;;;;;4981967;28;25120;-74
2024/01/08 12:41:04;;;;;;;7.95;5.85;;;;;;;;;;4983719;28;25084;-73
2024/01/08 12:43:30;;;;;;;6.85;5.15;;;;;;;;;;4995792;28;25055;-73
2024/01/08 12:45:56;;;;;;;10.82;5.60;;;;;;;;;;5014661;28;25061;-73
2024/01/08 12:48:22;;;;;;;6.25;5.20;;;;;;;;;;5005464;28;25060;-75
2024/01/08 12:50:48;;;;;;;8.20;5.28;;;;;;;;;;4993314;28;25074;-74
2024/01/08 12:53:14;;;;;;;9.50;5.55;;;;;;;;;;5004072;28;25087;-76
2024/01/08 12:55:40;;;;;;;8.38;5.70;;;;;;;;;;5000378;28;25078;-75
2024/01/08 12:58:07;;;;;;;7.35;5.05;;;;;;;;;;4989094;28;25066;-75
2024/01/08 13:00:35;;;;;;;7.57;5.22;;;;;;;;;;4981178;28;25109;-73
2024/01/08 13:03:01;;;;;;;7.35;5.10;;;;;;;;;;4989107;28;25087;-74
2024/01/08 13:05:26;;;;;;;7.00;5.32;;;;;;;;;;4989159;28;25111;-74
2024/01/08 13:07:52;;;;;;;9.73;4.30;;;;;;;;;;4991537;28;25069;-73
2024/01/08 13:10:18;;;;;;;7.70;4.65;;;;;;;;;;4999010;28;25072;-74
2024/01/08 13:12:44;;;;;;;8.13;4.55;;;;;;;;;;5018237;28;25073;-74
2024/01/08 13:15:10;;;;;;;5.07;4.47;;;;;;;;;;4982649;28;25155;-72
2024/01/08 13:17:36;;;;;;;7.05;4.50;;;;;;;;;;4992973;28;25108;-72
2024/01/08 13:20:04;;;;;;;7.45;4.28;;;;;;;;;;4989642;28;25125;-74
2024/01/08 13:22:30;;;;;;;5.93;4.57;;;;;;;;;;4996900;28;25067;-75
2024/01/08 13:24:59;;;;;;;8.02;4.13;;;;;;;;;;5031086;28;25131;-74
2024/01/08 13:27:26;;;;;;;7.15;4.68;;;;;;;;;;5023717;28;25065;-75
2024/01/08 13:29:52;;;;;;;6.10;4.68;;;;;;;;;;4989721;28;25077;-73
2024/01/08 13:32:19;;;;;;;5.85;4.28;;;;;;;;;;5024389;28;25084;-75
2024/01/08 13:34:47;;;;;;;10.50;5.28;;;;;;;;;;5024050;28;25060;-73
2024/01/08 13:37:14;;;;;;;8.77;4.18;;;;;;;;;;4992354;28;25069;-72
2024/01/08 13:39:40;;;;;;;6.43;4.65;;;;;;;;;;4990833;28;25117;-74
2024/01/08 13:42:06;;;;;;;5.95;3.92;;;;;;;;;;5021210;28;25120;-74
2024/01/08 13:44:33;;;;;;;7.53;4.78;;;;;;;;;;5001259;28;25074;-73
2024/01/08 13:47:00;;;;;;;7.18;4.40;;;;;;;;;;4995657;28;25075;-74
2024/01/08 13:49:26;;;;;;;7.93;4.57;;;;;;;;;;5024323;28;25138;-75
2024/01/08 13:51:52;;;;;;;8.68;3.88;;;;;;;;;;4997808;28;25088;-74
2024/01/08 13:54:18;;;;;;;3.83;3.28;;;;;;;;;;4995837;28;25069;-73
2024/01/08 13:56:44;;;;;;;5.10;3.88;;;;;;;;;;4995764;28;25161;-74
2024/01/08 13:59:10;;;;;;;4.53;3.65;;;;;;;;;;5022600;28;25077;-74
2024/01/08 14:01:37;;;;;;;5.35;3.50;;;;;;;;;;5009314;28;25143;-73
2024/01/08 14:04:03;;;;;;;4.88;3.67;;;;;;;;;;4997026;28;25060;-76
2024/01/08 14:06:29;;;;;;;6.93;3.28;;;;;;;;;;4998986;28;25073;-74
2024/01/08 14:08:56;;;;;;;3.90;2.90;;;;;;;;;;5028667;28;25084;-71
2024/01/08 14:11:23;;;;;;;7.90;3.78;;;;;;;;;;5007917;28;25158;-74
2024/01/08 14:13:49;;;;;;;5.78;3.33;;;;;;;;;;4997296;28;25080;-73
2024/01/08 14:16:15;;;;;;;6.55;3.55;;;;;;;;;;5042928;28;25077;-74
2024/01/08 14:18:41;;;;;;;6.43;3.25;;;;;;;;;;5004915;28;25063;-72
2024/01/08 14:21:08;;;;;;;4.43;2.85;;;;;;;;;;5021918;28;25073;-73
2024/01/08 14:23:34;;;;;;;7.18;3.38;;;;;;;;;;4996905;28;25062;-75
2024/01/08 14:26:03;;;;;;;4.10;2.83;;;;;;;;;;4989839;28;25073;-74
2024/01/08 14:28:29;;;;;;;4.82;2.42;;;;;;;;;;4988073;28;25043;-74
2024/01/08 14:30:55;;;;;;;6.90;2.85;;;;;;;;;;5025555;28;25068;-72
2024/01/08 14:33:21;;;;;;;5.28;3.33;;;;;;;;;;5002010;28;25057;-76
2024/01/08 14:35:47;;;;;;;6.07;2.42;;;;;;;;;;4998415;28;25093;-72